Time;durP1;ratioP1;P1;durP2;ratioP2;P2;SDS_P1;SDS_P2;PMS_P1;PMS_P2;Temp;Humidity;BMP_temperature;BMP_pressure;BME280_temperature;BME280_humidity;BME280_pressure;Samples;Min_cycle;Max_cycle;Signal;HPM_P1;HPM_P2
2023/03/13 00:00:16;;;;;;;7.47;2.27;;;7.40;56.60;;;;;;5017112;28;46406;-80
2023/03/13 00:02:44;;;;;;;8.97;1.97;;;7.40;56.50;;;;;;5042236;28;46340;-79
2023/03/13 00:05:10;;;;;;;7.00;1.67;;;7.40;56.60;;;;;;5009314;28;46608;-79
2023/03/13 00:07:36;;;;;;;6.00;1.90;;;7.40;56.40;;;;;;5013631;28;46411;-80
2023/03/13 00:10:01;;;;;;;4.00;1.37;;;7.40;56.50;;;;;;5018585;28;47435;-79
2023/03/13 00:12:27;;;;;;;4.00;1.60;;;7.40;56.50;;;;;;5028470;28;46487;-80
2023/03/13 00:14:52;;;;;;;7.33;1.47;;;7.40;56.40;;;;;;5052704;28;46427;-80
2023/03/13 00:17:18;;;;;;;6.10;1.83;;;7.40;56.60;;;;;;5027806;28;46579;-79
2023/03/13 00:19:43;;;;;;;4.90;1.77;;;7.30;56.40;;;;;;5014389;28;46533;-78
2023/03/13 00:22:09;;;;;;;12.10;2.00;;;7.40;56.40;;;;;;5013181;28;46285;-79
2023/03/13 00:24:35;;;;;;;4.10;2.00;;;7.30;56.30;;;;;;5012514;28;46352;-79
2023/03/13 00:27:02;;;;;;;8.37;2.10;;;7.30;56.30;;;;;;5009237;28;46684;-79
2023/03/13 00:29:28;;;;;;;6.13;1.93;;;7.20;56.40;;;;;;5013070;28;46412;-80
2023/03/13 00:31:54;;;;;;;4.17;2.10;;;7.10;56.30;;;;;;5013309;28;46809;-80
2023/03/13 00:34:19;;;;;;;7.60;2.13;;;7.10;56.50;;;;;;5012169;28;45867;-79
2023/03/13 00:36:45;;;;;;;7.00;1.93;;;7.10;56.40;;;;;;5015675;28;46430;-79
2023/03/13 00:39:11;;;;;;;5.13;1.70;;;7.00;56.20;;;;;;5015852;28;46971;-79
2023/03/13 00:41:37;;;;;;;6.10;1.80;;;7.00;56.30;;;;;;5044910;28;46890;-77
2023/03/13 00:44:03;;;;;;;6.03;2.13;;;6.90;56.30;;;;;;5015643;28;46389;-80
2023/03/13 00:46:30;;;;;;;8.30;1.90;;;6.80;56.40;;;;;;5009139;28;46311;-79
2023/03/13 00:48:56;;;;;;;4.53;1.80;;;6.70;56.40;;;;;;5006440;28;47331;-79
2023/03/13 00:51:25;;;;;;;5.33;1.83;;;6.70;56.40;;;;;;5013265;28;46571;-80
2023/03/13 00:53:51;;;;;;;14.07;1.80;;;6.70;56.50;;;;;;5012221;28;46461;-79
2023/03/13 00:56:18;;;;;;;8.27;2.33;;;6.60;56.60;;;;;;5013035;28;46731;-79
2023/03/13 00:58:46;;;;;;;4.10;1.50;;;6.60;56.60;;;;;;5029165;28;48482;-79
2023/03/13 01:01:34;;;;;;;7.40;2.13;;;6.50;56.50;;;;;;5017633;28;46515;-79
2023/03/13 01:04:09;;;;;;;11.53;2.03;;;6.40;56.50;;;;;;5010307;28;46451;-80
2023/03/13 01:06:39;;;;;;;5.93;1.57;;;6.40;56.70;;;;;;5011626;28;46446;-79
2023/03/13 01:09:06;;;;;;;7.27;1.73;;;6.30;56.60;;;;;;5011430;28;47535;-80
2023/03/13 01:11:35;;;;;;;7.17;1.63;;;6.30;56.90;;;;;;5018463;28;46847;-79
2023/03/13 01:14:03;;;;;;;8.80;1.90;;;6.20;56.80;;;;;;5006474;28;46325;-79
2023/03/13 01:16:31;;;;;;;5.20;1.53;;;6.10;56.90;;;;;;5013800;28;45866;-80
2023/03/13 01:19:00;;;;;;;5.23;1.73;;;6.10;56.90;;;;;;5011218;28;46614;-80
2023/03/13 01:21:26;;;;;;;7.20;1.77;;;6.10;56.70;;;;;;5011269;28;46424;-76
2023/03/13 01:23:53;;;;;;;6.87;1.90;;;6.00;56.80;;;;;;5012920;28;46699;-80
2023/03/13 01:26:20;;;;;;;5.30;1.63;;;6.00;56.80;;;;;;5021943;28;46390;-81
2023/03/13 01:28:45;;;;;;;6.20;1.90;;;6.00;56.60;;;;;;5023711;28;46146;-82
2023/03/13 01:31:23;;;;;;;11.70;1.80;;;5.90;56.50;;;;;;5061416;28;46530;-81
2023/03/13 01:33:53;;;;;;;9.90;2.17;;;6.00;56.40;;;;;;5026483;28;46491;-80
2023/03/13 01:36:19;;;;;;;3.23;1.50;;;5.90;56.40;;;;;;5008743;28;46894;-80
2023/03/13 01:38:51;;;;;;;3.83;1.50;;;5.90;56.30;;;;;;5010515;28;47067;-81
2023/03/13 01:41:18;;;;;;;3.80;1.23;;;5.90;56.30;;;;;;5013093;28;46437;-81
2023/03/13 01:43:44;;;;;;;6.23;1.47;;;5.90;56.40;;;;;;5012921;28;45846;-81
2023/03/13 01:46:18;;;;;;;6.47;1.97;;;5.90;56.40;;;;;;5016165;28;46307;-80
2023/03/13 01:48:44;;;;;;;6.50;1.63;;;5.90;56.30;;;;;;5013345;28;46339;-81
2023/03/13 01:51:21;;;;;;;5.67;1.53;;;6.00;56.30;;;;;;5014577;28;46397;-81
2023/03/13 01:53:53;;;;;;;5.40;1.70;;;6.10;56.20;;;;;;5014188;28;46543;-81
2023/03/13 01:56:28;;;;;;;4.10;1.60;;;6.20;56.00;;;;;;5044520;28;46512;-82
2023/03/13 01:58:56;;;;;;;4.50;1.63;;;6.30;55.90;;;;;;5008625;28;46518;-83
2023/03/13 02:01:23;;;;;;;6.40;2.03;;;6.30;55.90;;;;;;5012110;28;46473;-81
2023/03/13 02:03:49;;;;;;;3.57;1.10;;;6.30;55.70;;;;;;5022904;28;46446;-85
2023/03/13 02:06:16;;;;;;;4.13;1.67;;;6.40;55.60;;;;;;5053434;28;46001;-80
2023/03/13 02:08:48;;;;;;;6.83;1.40;;;6.50;55.60;;;;;;5013301;28;47540;-80
2023/03/13 02:11:39;;;;;;;4.30;1.43;;;6.40;55.40;;;;;;5013080;28;46424;-79
2023/03/13 02:14:06;;;;;;;3.37;1.50;;;6.40;55.50;;;;;;5044277;28;46443;-81
2023/03/13 02:16:33;;;;;;;2.37;1.40;;;6.40;55.50;;;;;;5012771;28;46677;-81
2023/03/13 02:19:01;;;;;;;4.17;1.43;;;6.40;55.50;;;;;;5009429;28;47335;-78
2023/03/13 02:21:42;;;;;;;3.90;1.40;;;6.30;55.80;;;;;;5015116;28;46316;-80
2023/03/13 02:24:36;;;;;;;3.03;1.50;;;6.20;56.10;;;;;;5015925;28;45769;-80
2023/03/13 02:27:02;;;;;;;3.20;1.40;;;6.20;56.10;;;;;;5016832;28;46427;-80
2023/03/13 02:29:28;;;;;;;3.80;1.60;;;6.30;56.10;;;;;;5014070;28;46481;-79
2023/03/13 02:31:54;;;;;;;8.23;1.40;;;6.30;56.00;;;;;;5016367;28;46449;-79
2023/03/13 02:34:23;;;;;;;8.37;1.70;;;6.40;55.90;;;;;;5015620;28;46332;-80
2023/03/13 02:36:49;;;;;;;8.27;1.67;;;6.50;56.00;;;;;;5016266;28;46367;-82
2023/03/13 02:39:17;;;;;;;3.23;1.57;;;6.60;55.90;;;;;;5017329;28;48053;-81
2023/03/13 02:41:45;;;;;;;3.00;1.30;;;6.70;55.60;;;;;;5014344;28;46447;-83
2023/03/13 02:44:11;;;;;;;4.80;1.40;;;6.80;55.50;;;;;;5011576;28;46459;-81
2023/03/13 02:46:45;;;;;;;5.93;2.23;;;6.90;55.40;;;;;;5012312;28;45828;-82
2023/03/13 02:49:20;;;;;;;3.77;1.50;;;7.00;55.40;;;;;;5011816;28;48111;-81
2023/03/13 02:51:46;;;;;;;4.03;1.43;;;7.00;55.30;;;;;;5016846;28;46428;-79
2023/03/13 02:54:18;;;;;;;4.00;1.17;;;7.10;55.20;;;;;;5012857;28;46458;-80
2023/03/13 02:56:47;;;;;;;2.60;1.30;;;7.10;55.20;;;;;;5017723;28;46478;-81
2023/03/13 02:59:14;;;;;;;6.50;1.63;;;7.10;55.10;;;;;;5016060;28;47478;-78
2023/03/13 03:01:39;;;;;;;4.10;1.50;;;7.20;54.90;;;;;;5014634;28;46364;-77
2023/03/13 03:04:05;;;;;;;1.93;1.20;;;7.20;54.70;;;;;;5013002;28;45952;-81
2023/03/13 03:06:31;;;;;;;7.03;1.43;;;7.20;54.80;;;;;;5011950;28;46667;-80
2023/03/13 03:08:57;;;;;;;8.40;1.43;;;7.20;54.70;;;;;;5014874;28;46395;-81
2023/03/13 03:11:22;;;;;;;8.57;1.23;;;7.30;54.90;;;;;;5014822;28;46501;-81
2023/03/13 03:13:48;;;;;;;5.70;1.10;;;7.30;54.80;;;;;;5013548;28;46442;-81
2023/03/13 03:16:17;;;;;;;5.07;1.60;;;7.30;54.80;;;;;;5021001;28;46539;-81
2023/03/13 03:18:43;;;;;;;4.50;1.57;;;7.30;54.80;;;;;;5017054;28;49349;-80
2023/03/13 03:21:08;;;;;;;5.30;1.50;;;7.40;54.80;;;;;;5014906;28;46416;-80
2023/03/13 03:23:35;;;;;;;2.57;1.20;;;7.40;54.90;;;;;;5016242;28;46425;-80
2023/03/13 03:26:02;;;;;;;3.57;1.40;;;7.40;55.20;;;;;;5011804;28;46482;-81
2023/03/13 03:28:28;;;;;;;5.50;1.90;;;7.30;55.10;;;;;;5012589;28;48260;-80
2023/03/13 03:30:54;;;;;;;6.57;1.97;;;7.30;55.20;;;;;;5011590;28;46548;-80
2023/03/13 03:33:21;;;;;;;10.37;1.30;;;7.30;55.20;;;;;;5011248;28;46556;-79
2023/03/13 03:35:46;;;;;;;3.40;1.40;;;7.30;55.10;;;;;;5014565;28;46582;-80
2023/03/13 03:38:12;;;;;;;4.90;1.40;;;7.30;55.20;;;;;;5012952;28;46408;-80
2023/03/13 03:40:37;;;;;;;3.13;1.20;;;7.20;55.40;;;;;;5011535;28;46421;-81
2023/03/13 03:43:03;;;;;;;4.77;1.80;;;7.20;55.30;;;;;;5014298;28;46312;-80
2023/03/13 03:45:29;;;;;;;3.60;1.60;;;7.20;55.50;;;;;;5046734;28;46521;-83
2023/03/13 03:47:54;;;;;;;4.87;2.17;;;7.20;55.60;;;;;;5016851;28;46395;-80
2023/03/13 03:50:20;;;;;;;6.40;1.97;;;7.10;55.70;;;;;;5018859;28;46377;-82
2023/03/13 03:52:45;;;;;;;3.67;1.70;;;7.10;55.80;;;;;;5022893;28;46395;-80
2023/03/13 03:55:11;;;;;;;2.80;1.70;;;7.10;55.90;;;;;;5019422;28;45867;-79
2023/03/13 03:57:36;;;;;;;4.30;1.50;;;7.00;56.20;;;;;;5014855;28;46394;-80
2023/03/13 04:00:04;;;;;;;4.00;1.17;;;6.90;56.30;;;;;;5014992;28;46464;-79
2023/03/13 04:02:29;;;;;;;2.50;1.10;;;6.90;56.40;;;;;;5009915;28;46702;-79
2023/03/13 04:04:55;;;;;;;3.80;1.20;;;7.00;56.30;;;;;;5011806;28;46069;-79
2023/03/13 04:07:20;;;;;;;4.27;1.07;;;7.10;56.10;;;;;;5016187;28;46364;-79
2023/03/13 04:09:46;;;;;;;3.67;1.40;;;7.20;55.70;;;;;;5018206;28;46458;-79
2023/03/13 04:12:11;;;;;;;2.73;1.10;;;7.30;55.50;;;;;;5016965;28;47564;-78
2023/03/13 04:14:37;;;;;;;2.70;1.43;;;7.50;55.20;;;;;;5046862;28;46612;-78
2023/03/13 04:17:03;;;;;;;4.00;2.17;;;7.70;54.90;;;;;;5010057;28;46629;-79
2023/03/13 04:19:28;;;;;;;3.80;1.13;;;7.70;54.50;;;;;;5010960;28;46316;-79
2023/03/13 04:21:54;;;;;;;2.63;1.13;;;7.80;54.50;;;;;;5018475;28;46558;-79
2023/03/13 04:24:19;;;;;;;3.00;0.90;;;7.90;54.20;;;;;;5013669;28;46510;-79
2023/03/13 04:26:45;;;;;;;2.30;1.00;;;8.00;54.00;;;;;;5017100;28;46324;-79
2023/03/13 04:29:10;;;;;;;1.60;0.90;;;8.10;54.10;;;;;;5014251;28;46171;-78
2023/03/13 04:31:36;;;;;;;2.73;1.10;;;8.10;54.20;;;;;;5019576;28;45858;-79
2023/03/13 04:34:01;;;;;;;4.77;1.63;;;8.20;54.40;;;;;;5011704;28;46495;-79
2023/03/13 04:36:27;;;;;;;4.23;1.57;;;8.20;54.20;;;;;;5041620;28;48314;-79
2023/03/13 04:38:52;;;;;;;2.80;0.90;;;8.30;54.30;;;;;;5013804;28;46549;-79
2023/03/13 04:41:18;;;;;;;2.60;1.10;;;8.30;54.20;;;;;;5014353;28;46390;-79
2023/03/13 04:43:43;;;;;;;2.73;1.20;;;8.40;54.10;;;;;;5020156;28;46563;-78
2023/03/13 04:46:09;;;;;;;2.97;1.17;;;8.50;54.10;;;;;;5013185;28;46354;-78
2023/03/13 04:48:34;;;;;;;1.93;0.80;;;8.50;53.90;;;;;;5009467;28;46469;-79
2023/03/13 04:51:00;;;;;;;3.23;0.90;;;8.60;54.00;;;;;;5045649;28;46502;-80
2023/03/13 04:53:25;;;;;;;1.73;1.20;;;8.70;53.90;;;;;;5013025;28;46840;-79
2023/03/13 04:55:51;;;;;;;3.67;1.67;;;8.70;53.70;;;;;;5012874;28;46550;-79
2023/03/13 04:58:16;;;;;;;3.03;1.20;;;8.80;53.60;;;;;;5043169;28;47648;-79
2023/03/13 05:00:42;;;;;;;2.43;1.23;;;8.80;53.40;;;;;;5018095;28;46443;-79
2023/03/13 05:03:07;;;;;;;2.40;1.30;;;8.90;53.30;;;;;;5013251;28;46796;-77
2023/03/13 05:05:34;;;;;;;1.70;0.90;;;9.00;53.00;;;;;;5013272;28;51043;-79
2023/03/13 05:08:00;;;;;;;3.93;1.30;;;9.00;53.00;;;;;;5008733;28;46458;-80
2023/03/13 05:10:25;;;;;;;2.70;1.20;;;9.10;52.70;;;;;;5038788;28;46375;-79
2023/03/13 05:12:51;;;;;;;1.80;0.90;;;9.10;52.50;;;;;;5018056;28;46439;-77
2023/03/13 05:15:16;;;;;;;1.80;1.20;;;9.20;52.40;;;;;;5017891;28;47113;-80
2023/03/13 05:17:42;;;;;;;2.10;1.20;;;9.20;51.90;;;;;;5012459;28;46391;-79
2023/03/13 05:20:10;;;;;;;4.00;1.90;;;9.20;51.90;;;;;;5013443;28;46471;-78
2023/03/13 05:22:38;;;;;;;2.93;1.90;;;9.30;52.00;;;;;;5013623;28;46443;-79
2023/03/13 05:25:04;;;;;;;3.30;1.57;;;9.30;52.00;;;;;;5061536;28;48002;-80
2023/03/13 05:27:30;;;;;;;9.10;3.30;;;9.30;52.00;;;;;;5027515;28;46362;-80
2023/03/13 05:29:55;;;;;;;2.87;1.73;;;9.40;52.10;;;;;;5021469;28;46265;-79
2023/03/13 05:32:21;;;;;;;2.80;1.70;;;9.40;52.10;;;;;;5045398;28;46330;-79
2023/03/13 05:34:47;;;;;;;8.30;1.47;;;9.40;51.60;;;;;;5011074;28;46577;-80
2023/03/13 05:37:12;;;;;;;2.40;1.40;;;9.40;51.50;;;;;;5048909;28;46917;-80
2023/03/13 05:39:38;;;;;;;2.90;1.47;;;9.40;51.60;;;;;;5016616;28;46383;-82
2023/03/13 05:42:03;;;;;;;5.17;1.30;;;9.50;51.30;;;;;;5023379;28;46697;-81
2023/03/13 05:44:29;;;;;;;4.03;1.83;;;9.40;51.10;;;;;;5014272;28;47243;-79
2023/03/13 05:46:54;;;;;;;9.23;2.50;;;9.50;51.00;;;;;;5015910;28;46447;-78
2023/03/13 05:49:20;;;;;;;14.17;7.37;;;9.50;50.90;;;;;;5009742;28;46431;-78
2023/03/13 05:51:45;;;;;;;11.00;5.00;;;9.60;50.70;;;;;;5012921;28;46485;-79
2023/03/13 05:54:11;;;;;;;6.67;2.17;;;9.50;50.50;;;;;;5009609;28;46158;-77
2023/03/13 05:56:36;;;;;;;2.80;0.93;;;9.50;50.50;;;;;;5012584;28;46400;-79
2023/03/13 05:59:02;;;;;;;2.30;1.00;;;9.50;50.50;;;;;;5007413;28;46272;-79
2023/03/13 06:01:27;;;;;;;6.60;1.17;;;9.60;50.70;;;;;;5010091;28;46438;-80
2023/03/13 06:03:53;;;;;;;1.60;0.80;;;9.60;50.60;;;;;;5013855;28;54308;-79
2023/03/13 06:06:19;;;;;;;7.33;1.00;;;9.70;50.50;;;;;;5010598;28;46411;-79
2023/03/13 06:08:44;;;;;;;1.40;0.80;;;9.90;50.30;;;;;;5012084;28;46442;-79
2023/03/13 06:11:10;;;;;;;1.80;0.70;;;10.00;49.20;;;;;;5012925;28;46269;-79
2023/03/13 06:13:35;;;;;;;1.40;0.70;;;10.10;48.80;;;;;;5012292;28;47126;-78
2023/03/13 06:16:01;;;;;;;3.00;0.80;;;10.20;48.30;;;;;;5010505;28;46104;-79
2023/03/13 06:18:27;;;;;;;3.17;0.80;;;10.40;48.10;;;;;;5008515;28;46379;-78
2023/03/13 06:21:00;;;;;;;1.93;0.87;;;10.50;47.70;;;;;;5009023;28;46391;-79
2023/03/13 06:23:26;;;;;;;2.17;1.20;;;10.70;47.20;;;;;;5011799;28;47920;-78
2023/03/13 06:25:52;;;;;;;1.60;0.70;;;10.70;46.90;;;;;;5016993;28;46395;-79
2023/03/13 06:28:17;;;;;;;1.60;0.87;;;10.80;46.60;;;;;;5015938;28;46665;-79
2023/03/13 06:30:43;;;;;;;3.13;0.80;;;10.90;46.50;;;;;;5009111;28;46522;-79
2023/03/13 06:33:08;;;;;;;1.80;0.80;;;11.00;46.20;;;;;;5012135;28;47116;-79
2023/03/13 06:35:34;;;;;;;2.23;1.00;;;11.00;46.00;;;;;;5010956;28;46380;-79
2023/03/13 06:37:59;;;;;;;1.30;0.70;;;11.10;46.00;;;;;;5015918;28;46420;-79
2023/03/13 06:40:25;;;;;;;1.70;0.70;;;11.10;45.80;;;;;;5013173;28;46426;-78
2023/03/13 06:42:50;;;;;;;1.97;0.80;;;11.20;45.20;;;;;;5016117;28;48036;-78
2023/03/13 06:45:16;;;;;;;1.70;0.80;;;11.30;45.30;;;;;;5010101;28;46309;-79
2023/03/13 06:47:42;;;;;;;2.23;0.70;;;11.30;45.00;;;;;;5012968;28;46450;-78
2023/03/13 06:50:08;;;;;;;3.80;1.00;;;11.50;44.80;;;;;;5025042;28;46406;-81
2023/03/13 06:52:34;;;;;;;2.00;1.00;;;11.40;44.50;;;;;;5008908;28;47162;-80
2023/03/13 06:54:59;;;;;;;3.70;0.77;;;11.60;44.00;;;;;;5007456;28;47614;-81
2023/03/13 06:57:25;;;;;;;2.27;1.00;;;11.60;43.50;;;;;;5012142;28;46982;-80
2023/03/13 06:59:51;;;;;;;2.80;1.10;;;11.70;43.20;;;;;;5011562;28;46577;-80
2023/03/13 07:02:16;;;;;;;5.23;0.80;;;11.80;43.00;;;;;;5007580;28;46342;-80
2023/03/13 07:04:42;;;;;;;3.03;0.90;;;11.80;42.80;;;;;;5013035;28;46405;-81
2023/03/13 07:07:08;;;;;;;1.60;0.90;;;11.80;42.20;;;;;;5017063;28;46360;-84
2023/03/13 07:09:33;;;;;;;2.20;0.90;;;11.90;42.20;;;;;;5012748;28;46435;-83
2023/03/13 07:11:59;;;;;;;3.90;1.00;;;11.90;41.90;;;;;;5015598;28;47034;-83
2023/03/13 07:14:25;;;;;;;2.97;1.23;;;12.00;41.60;;;;;;5045919;28;46506;-83
2023/03/13 07:16:50;;;;;;;1.53;0.90;;;12.20;40.70;;;;;;5015339;28;46527;-83
2023/03/13 07:19:16;;;;;;;3.20;1.00;;;12.30;40.50;;;;;;5012771;28;46501;-83
2023/03/13 07:21:42;;;;;;;1.43;0.70;;;12.60;40.80;;;;;;5015686;28;47060;-83
2023/03/13 07:24:08;;;;;;;4.50;1.00;;;12.50;39.90;;;;;;5013058;28;46320;-83
2023/03/13 07:26:34;;;;;;;2.20;0.80;;;12.60;39.40;;;;;;5014944;28;46390;-87
2023/03/13 07:29:00;;;;;;;2.40;0.97;;;12.70;39.20;;;;;;5019075;28;46044;-84
2023/03/13 07:31:25;;;;;;;2.47;0.90;;;12.70;38.90;;;;;;5013837;28;46727;-85
2023/03/13 07:33:55;;;;;;;1.60;0.80;;;12.70;38.70;;;;;;5019118;28;46471;-86
2023/03/13 07:36:21;;;;;;;3.50;0.93;;;12.80;38.30;;;;;;5015932;28;46635;-80
2023/03/13 07:38:48;;;;;;;3.37;1.07;;;12.80;38.20;;;;;;5015079;28;45834;-84
2023/03/13 07:41:13;;;;;;;1.77;0.80;;;12.80;37.80;;;;;;5012197;28;46463;-82
2023/03/13 07:43:40;;;;;;;2.60;1.00;;;12.80;37.60;;;;;;5018472;28;46495;-84
2023/03/13 07:46:07;;;;;;;1.80;0.70;;;12.80;37.90;;;;;;5019720;28;45835;-84
2023/03/13 07:48:38;;;;;;;2.17;0.80;;;12.90;37.50;;;;;;5011545;28;46586;-85
2023/03/13 07:51:06;;;;;;;2.33;1.10;;;12.80;37.40;;;;;;5011064;28;46436;-81
2023/03/13 07:53:32;;;;;;;1.50;0.73;;;12.80;37.20;;;;;;5029341;28;46761;-83
2023/03/13 07:56:02;;;;;;;3.00;1.03;;;12.70;37.40;;;;;;5011628;28;46474;-83
2023/03/13 07:58:30;;;;;;;1.80;0.87;;;12.70;37.50;;;;;;5012573;28;46654;-83
2023/03/13 08:00:56;;;;;;;2.37;1.00;;;12.70;37.70;;;;;;5011584;28;46616;-82
2023/03/13 08:03:23;;;;;;;3.60;0.90;;;12.70;37.40;;;;;;5012158;28;46615;-83
2023/03/13 08:06:07;;;;;;;4.03;0.80;;;12.80;37.60;;;;;;5027217;28;46453;-84
2023/03/13 08:08:32;;;;;;;2.40;0.90;;;12.80;37.80;;;;;;5014309;28;46695;-82
2023/03/13 08:11:03;;;;;;;2.60;1.10;;;12.80;38.00;;;;;;5012604;28;46438;-85
2023/03/13 08:13:29;;;;;;;3.10;0.90;;;12.80;38.30;;;;;;5011518;28;46466;-82
2023/03/13 08:16:15;;;;;;;1.90;0.90;;;12.80;38.30;;;;;;5012784;28;46454;-84
2023/03/13 08:18:46;;;;;;;3.77;1.20;;;12.90;38.30;;;;;;5014128;28;46578;-83
2023/03/13 08:21:17;;;;;;;1.87;1.00;;;13.00;38.30;;;;;;5014699;28;46679;-84
2023/03/13 08:23:44;;;;;;;2.30;0.93;;;13.20;38.30;;;;;;5015494;28;46131;-81
2023/03/13 08:26:15;;;;;;;2.57;0.90;;;13.30;37.90;;;;;;5046562;28;46423;-81
2023/03/13 08:28:43;;;;;;;2.87;0.90;;;13.70;37.50;;;;;;5021146;28;47053;-80
2023/03/13 08:31:17;;;;;;;2.60;1.00;;;14.00;36.60;;;;;;5018567;28;47864;-84
2023/03/13 08:33:44;;;;;;;2.00;1.00;;;14.30;36.00;;;;;;5027190;28;45775;-82
2023/03/13 08:36:23;;;;;;;4.00;1.10;;;14.50;35.90;;;;;;5045331;28;46446;-83
2023/03/13 08:38:54;;;;;;;2.97;1.27;;;14.60;35.20;;;;;;5051510;28;46370;-84
2023/03/13 08:41:27;;;;;;;2.20;0.90;;;14.70;35.10;;;;;;5021969;28;48244;-85
2023/03/13 08:43:53;;;;;;;2.20;0.90;;;14.60;34.90;;;;;;5017798;28;46575;-83
2023/03/13 08:46:19;;;;;;;2.40;0.97;;;14.60;34.80;;;;;;5016243;28;46562;-84
2023/03/13 08:48:49;;;;;;;2.13;0.87;;;14.50;34.70;;;;;;5017277;28;47062;-81
2023/03/13 08:51:15;;;;;;;2.37;1.03;;;14.60;35.70;;;;;;5014309;28;46161;-83
2023/03/13 08:53:42;;;;;;;4.17;1.27;;;14.50;34.40;;;;;;5048627;28;46371;-85
2023/03/13 08:56:10;;;;;;;4.70;1.07;;;14.50;34.20;;;;;;5013467;28;46614;-85
2023/03/13 08:58:36;;;;;;;2.00;0.90;;;14.80;33.80;;;;;;5013579;28;46626;-83
2023/03/13 09:01:07;;;;;;;1.80;0.90;;;15.20;33.20;;;;;;5006260;28;46467;-82
2023/03/13 09:03:33;;;;;;;3.00;0.70;;;15.50;32.60;;;;;;5010182;28;46623;-84
2023/03/13 09:06:00;;;;;;;2.83;0.90;;;15.60;32.10;;;;;;5002572;28;49940;-81
2023/03/13 09:08:26;;;;;;;2.37;1.00;;;15.80;31.80;;;;;;5035237;28;47057;-82
2023/03/13 09:11:07;;;;;;;2.60;1.10;;;15.80;32.60;;;;;;5008079;28;47418;-85
2023/03/13 09:13:35;;;;;;;2.67;1.13;;;15.60;30.00;;;;;;5030074;28;46440;-84
2023/03/13 09:16:12;;;;;;;2.80;1.00;;;15.70;30.30;;;;;;5013273;28;46782;-87
2023/03/13 09:18:38;;;;;;;3.87;1.00;;;15.90;30.30;;;;;;5019940;28;46350;-84
2023/03/13 09:21:13;;;;;;;1.67;0.80;;;16.00;30.30;;;;;;5027007;28;48363;-80
2023/03/13 09:23:38;;;;;;;2.07;0.87;;;16.10;29.80;;;;;;5010770;28;46632;-84
2023/03/13 09:26:04;;;;;;;1.77;0.70;;;16.40;29.80;;;;;;5016261;28;46603;-83
2023/03/13 09:28:30;;;;;;;2.20;0.90;;;16.40;29.30;;;;;;5017476;28;46662;-84
2023/03/13 09:31:06;;;;;;;2.20;0.90;;;16.40;28.90;;;;;;5011561;28;46694;-85
2023/03/13 09:33:32;;;;;;;2.27;0.90;;;16.50;28.50;;;;;;5009377;28;46380;-82
2023/03/13 09:35:57;;;;;;;6.60;0.97;;;16.40;28.20;;;;;;5021176;28;46433;-87
2023/03/13 09:38:23;;;;;;;3.20;0.90;;;16.50;28.40;;;;;;5026817;28;46679;-87
2023/03/13 09:40:50;;;;;;;2.40;0.90;;;16.50;27.90;;;;;;5033901;28;46398;-82
2023/03/13 09:43:26;;;;;;;2.60;1.10;;;16.50;28.20;;;;;;5017765;28;46821;-86
2023/03/13 09:45:55;;;;;;;3.90;0.90;;;16.40;28.20;;;;;;5011943;28;46367;-84
2023/03/13 09:48:31;;;;;;;1.80;0.80;;;16.50;28.30;;;;;;5036976;28;46354;-82
2023/03/13 09:50:59;;;;;;;2.40;0.90;;;16.50;27.60;;;;;;5010123;28;48045;-84
2023/03/13 09:53:56;;;;;;;3.80;0.90;;;16.50;28.10;;;;;;5013106;28;46455;-77
2023/03/13 09:56:44;;;;;;;2.70;1.00;;;16.20;27.60;;;;;;5006423;28;46799;-81
2023/03/13 09:59:23;;;;;;;3.23;1.10;;;16.30;26.50;;;;;;5008499;28;46615;-80
2023/03/13 10:01:50;;;;;;;4.43;1.00;;;16.50;26.80;;;;;;5011157;28;47242;-83
2023/03/13 10:04:18;;;;;;;3.47;0.87;;;17.00;26.60;;;;;;5014012;28;46601;-82
2023/03/13 10:06:46;;;;;;;2.17;0.80;;;17.20;26.00;;;;;;5011884;28;47078;-83
2023/03/13 10:09:21;;;;;;;1.87;0.80;;;17.20;26.90;;;;;;5004966;28;46497;-83
2023/03/13 10:12:16;;;;;;;1.90;0.80;;;17.20;26.30;;;;;;5009360;28;46885;-84
2023/03/13 10:14:46;;;;;;;2.97;1.00;;;17.00;26.30;;;;;;5008546;28;45867;-83
2023/03/13 10:17:29;;;;;;;3.57;1.10;;;16.80;26.80;;;;;;5008615;28;46419;-82
2023/03/13 10:19:59;;;;;;;2.40;1.00;;;16.60;26.90;;;;;;5040116;28;46611;-82
2023/03/13 10:22:29;;;;;;;1.93;0.90;;;16.50;26.60;;;;;;5012350;28;46279;-80
2023/03/13 10:25:01;;;;;;;2.97;0.90;;;16.70;26.70;;;;;;5005979;28;49631;-83
2023/03/13 10:27:27;;;;;;;2.27;1.00;;;16.90;27.10;;;;;;5006560;28;47314;-76
2023/03/13 10:29:52;;;;;;;1.90;0.80;;;17.10;26.90;;;;;;5034092;28;46437;-84
2023/03/13 10:32:19;;;;;;;2.43;1.20;;;17.40;26.90;;;;;;5003339;28;46507;-82
2023/03/13 10:34:56;;;;;;;2.47;0.97;;;17.50;26.70;;;;;;5016518;28;46434;-80
2023/03/13 10:37:23;;;;;;;2.00;0.80;;;17.40;26.80;;;;;;5034281;28;47376;-81
2023/03/13 10:39:48;;;;;;;2.10;0.90;;;17.20;25.90;;;;;;4991433;28;46549;-82
2023/03/13 10:42:30;;;;;;;2.60;0.90;;;16.90;26.30;;;;;;5010780;28;46638;-81
2023/03/13 10:45:04;;;;;;;4.30;1.00;;;16.60;27.90;;;;;;5010525;28;47261;-81
2023/03/13 10:47:34;;;;;;;2.30;0.90;;;16.50;27.30;;;;;;5011542;28;46494;-84
2023/03/13 10:50:01;;;;;;;3.33;0.80;;;16.70;27.40;;;;;;5014077;28;46419;-81
2023/03/13 10:52:46;;;;;;;1.90;0.80;;;16.90;27.20;;;;;;5010281;28;46372;-85
2023/03/13 10:55:17;;;;;;;1.97;0.80;;;17.10;27.10;;;;;;5015971;28;46634;-84
2023/03/13 10:57:56;;;;;;;2.63;1.00;;;17.30;27.80;;;;;;5016343;28;46387;-85
2023/03/13 11:00:28;;;;;;;2.87;0.90;;;17.40;26.70;;;;;;5012146;28;45867;-86
2023/03/13 11:02:54;;;;;;;3.00;1.30;;;17.60;26.80;;;;;;5010689;28;46490;-86
2023/03/13 11:05:29;;;;;;;5.40;1.00;;;17.60;25.90;;;;;;5022436;28;46394;-85
2023/03/13 11:07:55;;;;;;;2.30;1.00;;;17.40;26.60;;;;;;5017059;28;46366;-85
2023/03/13 11:10:28;;;;;;;2.93;1.13;;;17.60;26.80;;;;;;5015429;28;46433;-84
2023/03/13 11:12:55;;;;;;;3.47;1.57;;;17.60;26.30;;;;;;5046772;28;48422;-87
2023/03/13 11:15:32;;;;;;;2.40;1.10;;;17.70;26.50;;;;;;5021769;28;46469;-83
2023/03/13 11:18:10;;;;;;;2.87;1.10;;;17.90;26.40;;;;;;5015031;28;45792;-81
2023/03/13 11:20:39;;;;;;;4.27;1.40;;;18.00;26.30;;;;;;5047618;28;46376;-83
2023/03/13 11:23:23;;;;;;;3.40;1.00;;;18.10;26.40;;;;;;5018111;28;46636;-82
2023/03/13 11:26:03;;;;;;;3.80;1.23;;;18.10;26.30;;;;;;5027580;28;46311;-82
2023/03/13 11:28:38;;;;;;;4.10;1.20;;;18.30;26.10;;;;;;5022837;28;46425;-83
2023/03/13 11:31:24;;;;;;;2.97;1.40;;;18.30;26.30;;;;;;5021780;28;46406;-83
2023/03/13 11:34:03;;;;;;;2.90;1.30;;;18.30;26.30;;;;;;5021156;28;47165;-84
2023/03/13 11:37:02;;;;;;;4.13;1.10;;;18.00;26.30;;;;;;5026785;28;46209;-84
2023/03/13 11:40:10;;;;;;;2.80;1.10;;;18.00;26.70;;;;;;5018343;28;46413;-84
2023/03/13 11:42:40;;;;;;;3.97;1.17;;;17.90;26.70;;;;;;5007693;28;45866;-84
2023/03/13 11:45:11;;;;;;;4.10;1.10;;;18.00;26.70;;;;;;5015833;28;47254;-84
2023/03/13 11:47:48;;;;;;;3.83;1.50;;;18.00;26.60;;;;;;5044541;28;46439;-85
2023/03/13 11:50:22;;;;;;;3.00;1.00;;;18.10;26.60;;;;;;5014814;28;46511;-82
2023/03/13 11:53:01;;;;;;;8.43;1.40;;;18.10;26.50;;;;;;5016286;28;46388;-83
2023/03/13 11:55:47;;;;;;;2.40;1.20;;;18.00;26.20;;;;;;5036085;28;48553;-84
2023/03/13 11:58:34;;;;;;;5.40;1.20;;;18.10;26.50;;;;;;5014125;28;46788;-81
2023/03/13 12:01:23;;;;;;;3.67;1.30;;;18.20;26.40;;;;;;5023661;28;46446;-84
2023/03/13 12:04:04;;;;;;;2.90;1.20;;;18.30;26.20;;;;;;5025269;28;46264;-84
2023/03/13 12:06:34;;;;;;;2.97;1.03;;;18.30;25.60;;;;;;5026922;28;46554;-86
2023/03/13 12:09:27;;;;;;;2.80;1.23;;;18.40;25.70;;;;;;5020062;28;46518;-83
2023/03/13 12:12:15;;;;;;;3.50;1.53;;;18.50;25.60;;;;;;5016068;28;46529;-83
2023/03/13 12:14:56;;;;;;;3.70;1.47;;;18.60;25.60;;;;;;5018154;28;46473;-85
2023/03/13 12:17:35;;;;;;;2.47;1.23;;;18.70;25.10;;;;;;5025588;28;46464;-83
2023/03/13 12:20:17;;;;;;;2.70;1.20;;;18.40;25.50;;;;;;5050961;28;46328;-84
2023/03/13 12:22:56;;;;;;;3.83;1.57;;;18.50;25.80;;;;;;5016298;28;46474;-83
2023/03/13 12:25:29;;;;;;;9.50;1.97;;;18.40;25.90;;;;;;5032593;28;46479;-85
2023/03/13 12:28:18;;;;;;;4.30;1.53;;;18.50;25.70;;;;;;5049405;28;48167;-86
2023/03/13 12:31:05;;;;;;;4.50;1.40;;;18.50;25.70;;;;;;5018786;28;46498;-82
2023/03/13 12:33:41;;;;;;;6.20;1.83;;;18.50;25.40;;;;;;5020761;28;46475;-85
2023/03/13 12:36:21;;;;;;;4.20;1.53;;;18.60;25.50;;;;;;5021339;28;46661;-86
2023/03/13 12:39:00;;;;;;;4.67;1.50;;;18.40;25.30;;;;;;5014928;28;46407;-82
2023/03/13 12:41:42;;;;;;;4.63;1.60;;;18.20;26.10;;;;;;5018560;28;46565;-84
2023/03/13 12:44:17;;;;;;;3.03;1.43;;;18.20;26.40;;;;;;5024788;28;46274;-85
2023/03/13 12:46:46;;;;;;;2.77;1.20;;;18.20;26.60;;;;;;5022375;28;46348;-84
2023/03/13 12:49:31;;;;;;;3.23;1.37;;;18.20;26.90;;;;;;5021200;28;48389;-84
2023/03/13 12:52:42;;;;;;;5.20;1.70;;;18.30;26.20;;;;;;5021655;28;46606;-86
2023/03/13 12:55:20;;;;;;;2.53;1.30;;;18.40;26.00;;;;;;5022669;28;46358;-87
2023/03/13 12:58:13;;;;;;;4.63;1.40;;;18.60;25.90;;;;;;5025306;28;46429;-85
2023/03/13 13:00:42;;;;;;;5.97;1.60;;;18.50;25.10;;;;;;5014465;28;47158;-82
2023/03/13 13:03:44;;;;;;;7.87;1.50;;;18.60;24.50;;;;;;5021044;28;46042;-84